Time;durP1;ratioP1;P1;durP2;ratioP2;P2;SDS_P1;SDS_P2;PMS_P1;PMS_P2;Temp;Humidity;BMP_temperature;BMP_pressure;BME280_temperature;BME280_humidity;BME280_pressure;Samples;Min_cycle;Max_cycle;Signal;HPM_P1;HPM_P2
2022/04/01 00:00:12;;;;;;;32.85;6.72;;;;;;;16.51;48.56;92999.31;5022708;28;20228;-74
2022/04/01 00:02:40;;;;;;;41.58;5.82;;;;;;;16.51;48.38;93032.13;5018638;28;20670;-80
2022/04/01 00:05:08;;;;;;;34.35;6.68;;;;;;;16.65;47.78;93010.16;5021397;28;20198;-74
2022/04/01 00:07:35;;;;;;;47.72;6.00;;;;;;;16.85;46.81;93013.84;5026219;28;20279;-74
2022/04/01 00:10:02;;;;;;;42.42;7.75;;;;;;;16.73;47.71;93044.44;5023803;28;20196;-75
2022/04/01 00:12:29;;;;;;;32.03;6.78;;;;;;;16.68;47.73;93042.13;5018292;28;20250;-76
2022/04/01 00:14:56;;;;;;;27.10;4.05;;;;;;;15.74;53.68;93028.75;5020526;28;20205;-75
2022/04/01 00:17:23;;;;;;;19.67;4.15;;;;;;;15.51;53.78;93051.88;5025442;28;20208;-76
2022/04/01 00:19:54;;;;;;;16.88;3.95;;;;;;;14.92;57.13;93016.22;5024029;28;20489;-75
2022/04/01 00:22:21;;;;;;;31.30;5.03;;;;;;;15.12;54.03;93015.78;5025547;28;20205;-76
2022/04/01 00:24:50;;;;;;;47.33;8.93;;;;;;;16.03;49.01;92991.91;5013671;28;20209;-72
2022/04/01 00:27:17;;;;;;;51.10;8.52;;;;;;;16.22;48.18;92988.66;5018244;28;20544;-77
2022/04/01 00:29:46;;;;;;;19.85;4.63;;;;;;;15.68;53.30;92997.63;5018777;28;20204;-76
2022/04/01 00:32:13;;;;;;;21.73;3.88;;;;;;;15.18;55.68;92992.38;5024495;28;20207;-76
2022/04/01 00:34:40;;;;;;;19.02;3.50;;;;;;;14.82;56.68;93014.31;5024723;28;20211;-75
2022/04/01 00:37:08;;;;;;;41.47;6.15;;;;;;;14.98;53.79;93008.44;5019185;28;20200;-77
2022/04/01 00:39:35;;;;;;;48.70;7.75;;;;;;;15.42;51.40;92988.00;5018599;28;20209;-75
2022/04/01 00:42:04;;;;;;;38.45;6.38;;;;;;;15.56;52.44;92980.53;5023194;28;20212;-77
2022/04/01 00:44:33;;;;;;;49.13;8.40;;;;;;;15.51;51.69;92991.06;5026109;28;20239;-78
2022/04/01 00:47:02;;;;;;;30.85;6.13;;;;;;;15.34;52.93;93024.66;5022301;28;20256;-76
2022/04/01 00:49:29;;;;;;;41.45;7.70;;;;;;;15.59;51.16;93004.28;5024985;28;20220;-75
2022/04/01 00:51:58;;;;;;;50.47;9.15;;;;;;;15.95;49.52;93004.06;5020509;28;20208;-74
2022/04/01 00:54:27;;;;;;;53.58;8.88;;;;;;;15.95;49.63;93012.25;5017833;28;20204;-73
2022/04/01 00:56:55;;;;;;;49.00;7.72;;;;;;;16.02;49.47;93012.19;5021365;28;20208;-75
2022/04/01 00:59:22;;;;;;;46.70;7.78;;;;;;;15.92;49.88;93013.84;5024900;28;20367;-75
2022/04/01 01:01:49;;;;;;;36.58;8.15;;;;;;;15.85;50.40;92999.47;5021507;28;20239;-78
2022/04/01 01:04:19;;;;;;;49.42;9.18;;;;;;;15.72;51.53;93004.59;5018177;28;20248;-77
2022/04/01 01:06:48;;;;;;;40.35;8.02;;;;;;;15.63;51.85;92996.84;5020146;28;20288;-76
2022/04/01 01:09:15;;;;;;;44.92;7.25;;;;;;;15.73;51.65;93011.59;5016724;28;20193;-77
2022/04/01 01:11:45;;;;;;;40.55;7.75;;;;;;;15.80;51.36;92991.69;5031194;28;20211;-75
2022/04/01 01:14:14;;;;;;;48.40;8.10;;;;;;;15.78;51.24;92991.31;5017651;28;20204;-74
2022/04/01 01:16:44;;;;;;;53.30;10.05;;;;;;;15.65;51.85;92999.19;5018552;28;20689;-74
2022/04/01 01:19:12;;;;;;;52.85;8.93;;;;;;;15.75;51.43;92992.09;5018111;28;20216;-76
2022/04/01 01:21:41;;;;;;;55.13;9.52;;;;;;;15.76;51.40;92999.13;5017893;28;20259;-75
2022/04/01 01:24:13;;;;;;;41.58;8.40;;;;;;;15.61;52.37;93003.88;5029132;28;20200;-74
2022/04/01 01:26:44;;;;;;;40.72;7.10;;;;;;;15.54;52.68;92985.56;5017627;28;20196;-75
2022/04/01 01:29:11;;;;;;;49.00;8.75;;;;;;;15.41;53.43;92981.75;5022481;28;20624;-74
2022/04/01 01:31:38;;;;;;;38.28;6.95;;;;;;;15.26;54.29;92996.63;5024665;28;20333;-77
2022/04/01 01:34:05;;;;;;;52.88;9.73;;;;;;;15.24;54.27;92968.97;5019496;28;20606;-76
2022/04/01 01:36:33;;;;;;;52.28;9.13;;;;;;;15.20;54.21;92976.38;5019456;28;20232;-74
2022/04/01 01:39:00;;;;;;;49.00;8.43;;;;;;;15.22;53.94;92941.31;5026548;28;20208;-76
2022/04/01 01:41:27;;;;;;;32.28;6.95;;;;;;;15.28;53.92;92958.84;5028375;28;20223;-71
2022/04/01 01:43:55;;;;;;;35.00;7.57;;;;;;;15.20;54.28;92974.44;5023889;28;20228;-73
2022/04/01 01:46:22;;;;;;;40.67;7.88;;;;;;;15.29;53.33;92957.66;5021135;28;20681;-76
2022/04/01 01:48:49;;;;;;;56.78;9.75;;;;;;;15.36;53.13;92965.78;5025281;28;20204;-73
2022/04/01 01:56:45;;;;;;;62.55;9.23;;;;;;;15.61;51.79;92905.63;5022916;28;20692;-75
2022/04/01 01:59:14;;;;;;;54.10;8.48;;;;;;;15.61;51.65;92925.50;5021398;28;20205;-73
2022/04/01 02:01:41;;;;;;;44.20;9.02;;;;;;;15.54;51.79;92911.91;5025487;28;20229;-72
2022/04/01 02:04:11;;;;;;;42.67;8.55;;;;;;;15.51;51.79;92909.97;5028047;28;20598;-76
2022/04/01 02:06:37;;;;;;;51.70;10.65;;;;;;;15.63;51.60;92923.16;5023921;28;20239;-75
2022/04/01 02:09:04;;;;;;;49.60;8.85;;;;;;;15.54;52.22;92922.81;5022624;28;20278;-74
2022/04/01 02:11:32;;;;;;;56.88;9.82;;;;;;;15.42;52.79;92906.91;5034095;28;20605;-73
2022/04/01 02:13:59;;;;;;;58.38;10.93;;;;;;;15.37;52.95;92880.03;5034232;28;20208;-70
2022/04/01 02:16:27;;;;;;;56.92;9.13;;;;;;;15.48;52.56;92913.47;5034174;28;20208;-73
2022/04/01 02:18:54;;;;;;;57.15;9.98;;;;;;;15.48;52.99;92913.47;5020356;28;20224;-75
2022/04/01 02:21:21;;;;;;;45.60;9.07;;;;;;;15.40;53.11;92906.53;5023455;28;20233;-73
2022/04/01 02:23:50;;;;;;;65.40;9.98;;;;;;;15.24;53.56;92876.22;5029209;28;20208;-76
2022/04/01 02:26:17;;;;;;;53.55;9.15;;;;;;;15.28;53.35;92849.72;5023268;28;20205;-75
2022/04/01 02:28:44;;;;;;;55.72;9.07;;;;;;;15.35;53.12;92866.03;5027251;28;20236;-73
2022/04/01 02:31:12;;;;;;;58.83;9.95;;;;;;;15.35;52.98;92852.38;5025183;28;20204;-76
2022/04/01 02:33:42;;;;;;;40.15;8.70;;;;;;;15.33;53.05;92841.09;5020567;28;20208;-74
2022/04/01 02:36:10;;;;;;;64.75;10.52;;;;;;;15.34;53.10;92842.66;5022039;28;20333;-77
2022/04/01 02:38:39;;;;;;;42.35;7.78;;;;;;;15.43;52.21;92834.78;5019735;28;20583;-76
2022/04/01 02:41:08;;;;;;;59.00;9.98;;;;;;;15.50;51.71;92821.09;5020726;28;20228;-76
2022/04/01 02:43:35;;;;;;;53.85;9.00;;;;;;;15.50;51.97;92856.56;5020519;28;20603;-75
2022/04/01 02:46:05;;;;;;;58.22;9.45;;;;;;;15.49;51.95;92844.09;5020175;28;20200;-74
2022/04/01 02:48:32;;;;;;;45.85;8.75;;;;;;;15.46;51.85;92806.69;5026010;28;20672;-74
2022/04/01 02:51:01;;;;;;;56.92;10.68;;;;;;;15.60;51.30;92828.44;5026759;28;20685;-77
2022/04/01 02:53:27;;;;;;;53.90;9.50;;;;;;;15.52;51.58;92796.91;5021686;28;20240;-73
2022/04/01 02:55:56;;;;;;;42.28;9.07;;;;;;;15.59;51.10;92821.41;5020255;28;20208;-75
2022/04/01 02:58:23;;;;;;;50.60;9.55;;;;;;;15.68;51.12;92831.09;5025429;28;20251;-75
2022/04/01 03:00:50;;;;;;;51.30;8.98;;;;;;;15.77;50.68;92823.22;5027028;28;20229;-76
2022/04/01 03:03:17;;;;;;;66.32;11.55;;;;;;;15.90;50.17;92825.03;5021550;28;20722;-72
2022/04/01 03:05:47;;;;;;;48.15;8.93;;;;;;;15.86;50.21;92815.31;5020116;28;20216;-71
2022/04/01 03:08:15;;;;;;;76.28;10.30;;;;;;;15.84;50.10;92821.22;5023954;28;20197;-76
2022/04/01 03:10:43;;;;;;;57.33;9.93;;;;;;;15.74;50.49;92811.16;5030471;28;20213;-76
2022/04/01 03:13:10;;;;;;;44.03;7.88;;;;;;;15.77;50.36;92804.09;5022439;28;20200;-73
2022/04/01 03:15:38;;;;;;;47.85;10.23;;;;;;;15.68;50.84;92795.63;5026288;28;20910;-71
2022/04/01 03:18:06;;;;;;;56.28;8.48;;;;;;;15.64;51.06;92812.81;5024306;28;20567;-75
2022/04/01 03:20:35;;;;;;;44.53;9.10;;;;;;;15.63;51.00;92818.66;5019943;28;20564;-77
2022/04/01 03:23:03;;;;;;;61.75;9.57;;;;;;;15.73;50.35;92760.47;5021510;28;20347;-76
2022/04/01 03:25:32;;;;;;;79.90;11.00;;;;;;;15.82;49.61;92795.50;5019400;28;20671;-77
2022/04/01 03:28:00;;;;;;;56.33;9.02;;;;;;;15.85;49.61;92798.16;5020632;28;20691;-72
2022/04/01 03:30:28;;;;;;;69.05;11.23;;;;;;;15.94;49.24;92805.91;5026828;28;20297;-78
2022/04/01 03:32:55;;;;;;;66.15;10.82;;;;;;;16.06;48.37;92789.00;5025535;28;20296;-76
2022/04/01 03:35:24;;;;;;;56.13;10.38;;;;;;;16.16;48.09;92793.56;5020236;28;20232;-73
2022/04/01 03:37:51;;;;;;;63.95;10.60;;;;;;;16.11;48.22;92785.03;5019175;28;20209;-77
2022/04/01 03:40:18;;;;;;;60.60;9.85;;;;;;;16.17;47.94;92762.31;5025528;28;20228;-76
2022/04/01 03:42:51;;;;;;;60.40;10.60;;;;;;;16.12;48.03;92787.38;5026087;28;20243;-73
2022/04/01 03:45:18;;;;;;;53.15;10.70;;;;;;;16.20;47.70;92777.91;5021062;28;20290;-76
2022/04/01 03:47:53;;;;;;;81.03;10.75;;;;;;;16.20;47.36;92802.50;5016942;28;20204;-78
2022/04/01 03:50:29;;;;;;;68.82;11.00;;;;;;;16.14;47.58;92784.97;5022148;28;20211;-73
2022/04/01 03:53:04;;;;;;;57.45;9.40;;;;;;;16.25;47.15;92812.97;5018726;28;20291;-76
2022/04/01 03:55:33;;;;;;;59.15;9.65;;;;;;;16.19;47.34;92809.13;5019650;28;20212;-79
2022/04/01 03:58:07;;;;;;;80.93;11.50;;;;;;;16.23;47.22;92818.06;5025609;28;20201;-74
2022/04/01 04:00:34;;;;;;;69.07;10.18;;;;;;;16.13;47.69;92824.41;5025777;28;20204;-77
2022/04/01 04:03:06;;;;;;;73.60;12.90;;;;;;;16.11;47.82;92821.34;5019589;28;20243;-79
2022/04/01 04:05:36;;;;;;;66.18;10.77;;;;;;;16.26;46.98;92809.03;5018934;28;20224;-76
2022/04/01 04:08:03;;;;;;;68.82;10.95;;;;;;;16.31;46.77;92794.16;5023342;28;20579;-76
2022/04/01 04:10:30;;;;;;;64.95;12.05;;;;;;;16.25;46.97;92785.66;5027678;28;20204;-74
2022/04/01 04:12:58;;;;;;;66.18;10.60;;;;;;;16.14;47.53;92782.25;5031735;28;20200;-76
2022/04/01 04:15:29;;;;;;;62.08;10.57;;;;;;;16.20;47.43;92788.84;5018895;28;20219;-79
2022/04/01 04:18:00;;;;;;;64.85;11.13;;;;;;;16.25;46.82;92788.41;5021469;28;20200;-78
2022/04/01 04:20:34;;;;;;;78.63;11.38;;;;;;;16.24;47.13;92795.03;5016846;28;20286;-82
2022/04/01 04:23:09;;;;;;;64.70;11.88;;;;;;;16.35;46.49;92762.91;5019445;28;20222;-76
2022/04/01 04:25:38;;;;;;;79.78;13.40;;;;;;;16.36;46.54;92812.84;5012313;28;20193;-77
2022/04/01 04:28:10;;;;;;;75.15;12.43;;;;;;;16.34;46.70;92816.00;5024803;28;20196;-77
2022/04/01 04:30:40;;;;;;;69.22;10.95;;;;;;;16.38;46.23;92812.44;5029085;28;20200;-76
2022/04/01 04:33:08;;;;;;;63.05;11.55;;;;;;;16.34;46.61;92802.34;5030323;28;20706;-75
2022/04/01 04:35:38;;;;;;;79.93;13.38;;;;;;;16.32;46.45;92820.31;5019011;28;20200;-74
2022/04/01 04:38:06;;;;;;;83.13;12.40;;;;;;;16.39;46.25;92828.44;5030652;28;20204;-75
2022/04/01 04:40:35;;;;;;;79.00;11.02;;;;;;;16.51;46.00;92846.25;5031947;28;20295;-76
2022/04/01 04:43:03;;;;;;;73.25;11.10;;;;;;;16.56;46.56;92860.25;5017864;28;20268;-75
2022/04/01 04:45:30;;;;;;;64.93;10.38;;;;;;;16.20;48.80;92880.94;5020940;28;20237;-73
2022/04/01 04:47:59;;;;;;;70.43;12.07;;;;;;;16.13;48.52;92870.84;5025055;28;20200;-76
2022/04/01 04:50:26;;;;;;;49.55;9.77;;;;;;;16.01;48.13;92863.16;5021657;28;20204;-73
2022/04/01 04:52:55;;;;;;;79.43;11.32;;;;;;;16.52;45.81;92886.09;5017564;28;20215;-75
2022/04/01 04:55:22;;;;;;;78.30;13.32;;;;;;;16.58;46.22;92870.75;5031552;28;20205;-75
2022/04/01 04:57:51;;;;;;;77.32;10.85;;;;;;;16.73;45.67;92861.25;5017817;28;20211;-76
2022/04/01 05:00:20;;;;;;;69.40;11.60;;;;;;;16.83;44.98;92865.81;5020235;28;20209;-72
2022/04/01 05:03:13;;;;;;;74.60;10.45;;;;;;;16.59;47.59;92877.78;5024189;28;20259;-74
2022/04/01 05:05:43;;;;;;;61.95;10.15;;;;;;;15.88;51.25;92886.69;5024361;28;20214;-78
2022/04/01 05:08:18;;;;;;;48.83;9.55;;;;;;;15.57;53.27;92900.22;5019854;28;20540;-77
2022/04/01 05:10:52;;;;;;;40.42;8.02;;;;;;;14.37;57.23;92868.03;5016808;28;20223;-72
2022/04/01 05:13:25;;;;;;;51.25;10.25;;;;;;;14.24;57.35;92854.09;5019549;28;20203;-74
2022/04/01 05:15:54;;;;;;;51.88;8.93;;;;;;;14.34;57.26;92880.53;5024269;28;20296;-74
2022/04/01 05:18:30;;;;;;;51.60;10.20;;;;;;;14.37;56.83;92859.88;5023640;28;20304;-73
2022/04/01 05:21:02;;;;;;;56.83;8.88;;;;;;;14.41;56.84;92857.94;5023230;28;20193;-79
2022/04/01 05:23:42;;;;;;;63.75;9.88;;;;;;;14.36;57.13;92855.59;5023764;28;20186;-76
2022/04/01 05:26:12;;;;;;;44.55;9.13;;;;;;;14.21;57.47;92885.59;5020791;28;20193;-76
2022/04/01 05:28:43;;;;;;;52.63;8.48;;;;;;;14.05;57.76;92874.38;5024217;28;20221;-78
2022/04/01 05:31:14;;;;;;;56.75;9.35;;;;;;;13.90;58.25;92861.94;5022464;28;20205;-79
2022/04/01 05:33:52;;;;;;;58.30;10.43;;;;;;;13.87;58.52;92849.13;5017629;28;20200;-75
2022/04/01 05:36:22;;;;;;;51.80;10.15;;;;;;;13.96;58.52;92868.53;5017996;28;20226;-75
2022/04/01 05:38:49;;;;;;;49.85;10.10;;;;;;;14.10;58.04;92859.56;5022972;28;20205;-75
2022/04/01 05:41:19;;;;;;;45.58;9.00;;;;;;;14.33;57.54;92878.19;5012037;28;20263;-75
2022/04/01 05:43:47;;;;;;;52.97;9.20;;;;;;;14.46;57.12;92866.50;5022288;28;20228;-77
2022/04/01 05:46:15;;;;;;;46.47;8.38;;;;;;;14.13;58.13;92856.84;5024531;28;20299;-76
2022/04/01 05:48:45;;;;;;;45.72;10.00;;;;;;;14.27;57.74;92860.69;5019605;28;20212;-76
2022/04/01 05:51:14;;;;;;;54.25;9.20;;;;;;;14.12;58.29;92870.84;5017306;28;20638;-76
2022/04/01 05:53:44;;;;;;;55.03;9.80;;;;;;;14.22;58.08;92876.25;5030676;28;20196;-77
2022/04/01 05:56:12;;;;;;;59.35;9.45;;;;;;;14.07;58.63;92839.38;5017666;28;20192;-76
2022/04/01 05:58:40;;;;;;;52.70;8.82;;;;;;;14.13;58.49;92859.56;5019895;28;20545;-72
2022/04/01 06:01:16;;;;;;;60.80;9.82;;;;;;;14.39;57.69;92876.59;5023763;28;20201;-73
2022/04/01 06:04:13;;;;;;;50.60;9.80;;;;;;;14.82;56.62;92850.75;5022993;28;20215;-78
2022/04/01 06:06:42;;;;;;;44.47;9.10;;;;;;;14.78;56.52;92825.47;5020478;28;20201;-79
2022/04/01 06:09:25;;;;;;;70.90;10.38;;;;;;;15.29;55.39;92840.34;5018043;28;20196;-74
2022/04/01 06:11:59;;;;;;;55.33;10.77;;;;;;;15.79;53.80;92859.09;5017443;28;20213;-76
2022/04/01 06:14:36;;;;;;;40.72;8.07;;;;;;;15.80;53.62;92841.53;5017679;28;20232;-72
2022/04/01 06:17:09;;;;;;;57.15;9.23;;;;;;;15.69;54.45;92841.63;5028450;28;20239;-78
2022/04/01 06:19:44;;;;;;;40.90;7.22;;;;;;;16.00;53.52;92856.91;5010712;28;20310;-78
2022/04/01 06:22:15;;;;;;;46.80;10.10;;;;;;;16.45;52.61;92847.88;5015723;28;20567;-78
2022/04/01 06:24:50;;;;;;;62.47;9.73;;;;;;;16.92;50.73;92863.34;5023218;28;20204;-77
2022/04/01 06:27:23;;;;;;;56.67;9.90;;;;;;;17.43;50.04;92845.03;5023529;28;20201;-76
2022/04/01 06:30:03;;;;;;;56.60;10.63;;;;;;;17.47;49.21;92848.50;5022089;28;20224;-71
2022/04/01 06:32:35;;;;;;;48.90;9.52;;;;;;;17.71;48.81;92858.31;5023769;28;20223;-73
2022/04/01 06:35:17;;;;;;;56.08;10.27;;;;;;;18.22;47.86;92872.72;5028451;28;20193;-75
2022/04/01 06:37:54;;;;;;;56.88;9.63;;;;;;;18.64;46.30;92875.91;5025185;28;20578;-78
2022/04/01 06:40:28;;;;;;;55.30;10.05;;;;;;;18.76;45.91;92869.78;5017106;28;20544;-71
2022/04/01 06:42:55;;;;;;;49.78;9.50;;;;;;;18.83;45.99;92834.00;5023234;28;20232;-76
2022/04/01 06:45:22;;;;;;;59.13;9.90;;;;;;;19.54;44.78;92859.94;5013871;28;20236;-72
2022/04/01 06:47:49;;;;;;;51.35;8.68;;;;;;;19.13;44.68;92847.44;5015751;28;20205;-78
2022/04/01 06:50:18;;;;;;;53.70;10.13;;;;;;;19.18;45.47;92843.44;5024800;28;20201;-76
2022/04/01 06:52:45;;;;;;;50.08;10.18;;;;;;;20.07;43.35;92872.41;5027220;28;20214;-71
2022/04/01 06:55:12;;;;;;;60.72;10.48;;;;;;;19.94;43.33;92859.78;5023023;28;20212;-75
2022/04/01 06:57:39;;;;;;;64.80;10.57;;;;;;;20.19;43.33;92851.69;5020014;28;20262;-76
2022/04/01 07:00:11;;;;;;;66.20;11.23;;;;;;;21.13;41.00;92876.28;5023522;28;20204;-79
2022/04/01 07:02:38;;;;;;;65.65;11.35;;;;;;;20.04;43.94;92845.00;5026663;28;20221;-75
2022/04/01 07:05:06;;;;;;;48.90;9.20;;;;;;;19.41;44.24;92870.75;5024301;28;20204;-73
2022/04/01 07:07:34;;;;;;;59.92;9.90;;;;;;;20.01;42.77;92876.06;5015569;28;20208;-80
2022/04/01 07:10:02;;;;;;;54.53;10.35;;;;;;;20.04;42.99;92853.22;5018533;28;20196;-74
2022/04/01 07:12:29;;;;;;;64.95;11.00;;;;;;;20.79;41.23;92839.06;5023611;28;20214;-75
2022/04/01 07:14:55;;;;;;;59.45;10.55;;;;;;;19.97;42.80;92847.91;5026255;28;20200;-79
2022/04/01 07:17:22;;;;;;;52.90;10.25;;;;;;;19.47;43.88;92838.06;5032729;28;20240;-80
2022/04/01 07:19:49;;;;;;;56.63;10.32;;;;;;;19.55;44.12;92844.97;5032783;28;20602;-72
2022/04/01 07:22:16;;;;;;;50.50;9.02;;;;;;;18.63;46.21;92836.72;5019512;28;20228;-76
2022/04/01 07:24:44;;;;;;;44.92;7.47;;;;;;;18.77;45.89;92811.75;5019198;28;20464;-70
2022/04/01 07:27:11;;;;;;;26.85;6.20;;;;;;;18.39;46.39;92805.84;5025915;28;20213;-70
2022/04/01 07:29:38;;;;;;;62.72;12.30;;;;;;;19.92;43.18;92818.22;5025764;28;20208;-75
2022/04/01 07:34:51;;;;;;;68.90;11.13;;;;;;;20.20;40.37;92822.97;5018550;28;20208;-74
2022/04/01 07:37:20;;;;;;;58.10;11.45;;;;;;;20.47;40.66;92825.44;5023729;28;20251;-74
2022/04/01 07:39:49;;;;;;;33.92;6.55;;;;;;;19.85;42.98;92836.41;5026251;28;20215;-71
2022/04/01 07:42:16;;;;;;;42.17;8.32;;;;;;;19.71;40.67;92844.22;5022645;28;20334;-77
2022/04/01 07:44:43;;;;;;;60.97;10.75;;;;;;;20.01;41.38;92810.13;5019241;28;20240;-79
2022/04/01 07:47:10;;;;;;;57.47;11.48;;;;;;;20.37;41.07;92843.75;5032582;28;20204;-76
2022/04/01 07:49:37;;;;;;;61.08;10.20;;;;;;;20.23;41.17;92827.59;5019101;28;20295;-79
2022/04/01 07:52:07;;;;;;;62.67;10.27;;;;;;;20.12;40.02;92830.63;5025094;28;20286;-72
2022/04/01 07:54:35;;;;;;;48.75;10.23;;;;;;;20.42;40.91;92817.69;5031279;28;20217;-73
2022/04/01 07:57:04;;;;;;;64.88;10.60;;;;;;;20.73;38.39;92826.28;5032079;28;20208;-72
2022/04/01 07:59:32;;;;;;;64.65;11.20;;;;;;;21.32;36.76;92830.53;5031585;28;20212;-78
2022/04/01 08:01:58;;;;;;;69.80;11.05;;;;;;;21.86;37.26;92817.38;5031574;28;20211;-75
2022/04/01 08:04:26;;;;;;;53.88;11.63;;;;;;;22.30;34.94;92834.84;5026387;28;20208;-73
2022/04/01 08:06:54;;;;;;;66.75;10.38;;;;;;;22.31;34.57;92830.09;5011186;28;20300;-77
2022/04/01 08:09:21;;;;;;;70.82;10.85;;;;;;;22.54;34.46;92821.41;5017348;28;20220;-74
2022/04/01 08:11:48;;;;;;;67.82;11.35;;;;;;;22.22;34.70;92816.22;5019498;28;20205;-75
2022/04/01 08:14:17;;;;;;;60.60;9.82;;;;;;;21.78;35.76;92826.31;5012687;28;20209;-73
2022/04/01 08:16:44;;;;;;;56.38;11.77;;;;;;;21.81;35.79;92814.41;5024367;28;20667;-74
2022/04/01 08:19:11;;;;;;;59.10;9.43;;;;;;;21.56;35.97;92815.19;5017665;28;20219;-78
2022/04/01 08:21:38;;;;;;;55.28;10.30;;;;;;;21.36;36.10;92809.13;5031064;28;20215;-75
2022/04/01 08:24:07;;;;;;;70.63;10.52;;;;;;;21.61;35.74;92795.34;5028885;28;20247;-77
2022/04/01 08:26:35;;;;;;;49.40;8.60;;;;;;;21.39;35.96;92788.97;5031548;28;20266;-71
2022/04/01 08:29:02;;;;;;;54.17;9.80;;;;;;;21.38;36.00;92806.72;5031964;28;20219;-78
2022/04/01 08:31:33;;;;;;;50.58;8.82;;;;;;;21.56;36.28;92787.66;5030962;28;20659;-77
2022/04/01 08:34:00;;;;;;;61.25;9.98;;;;;;;21.62;35.89;92780.34;5031038;28;20291;-74
2022/04/01 08:36:27;;;;;;;58.85;8.90;;;;;;;21.69;35.52;92763.59;5016501;28;20748;-71
2022/04/01 08:38:54;;;;;;;58.85;9.93;;;;;;;21.40;36.68;92754.69;5011908;28;20205;-75
2022/04/01 08:41:23;;;;;;;65.40;10.57;;;;;;;21.12;37.65;92775.59;5011385;28;20259;-71
2022/04/01 08:43:51;;;;;;;53.45;8.20;;;;;;;20.66;38.13;92763.19;5011194;28;20255;-75
2022/04/01 08:46:19;;;;;;;42.08;7.95;;;;;;;20.84;38.16;92749.69;5013906;28;20209;-72
2022/04/01 08:48:48;;;;;;;62.60;9.10;;;;;;;21.19;37.52;92758.88;5031589;28;20266;-74
2022/04/01 08:51:15;;;;;;;43.03;8.45;;;;;;;20.89;38.42;92746.41;5030824;28;20204;-76
2022/04/01 08:53:44;;;;;;;63.50;10.07;;;;;;;20.90;37.85;92750.72;5031216;28;20655;-76
2022/04/01 08:56:12;;;;;;;65.15;10.18;;;;;;;20.95;38.75;92739.13;5031204;28;20212;-78
2022/04/01 08:58:39;;;;;;;50.70;9.65;;;;;;;20.36;39.79;92754.22;5031073;28;20204;-75
2022/04/01 09:01:06;;;;;;;51.85;8.90;;;;;;;20.08;40.61;92691.75;5030384;28;20256;-71
2022/04/01 09:03:35;;;;;;;66.82;9.98;;;;;;;20.35;40.55;92718.88;5030795;28;20235;-78
2022/04/01 09:06:06;;;;;;;46.55;9.05;;;;;;;20.41;40.23;92684.91;5031112;28;20227;-76
2022/04/01 09:08:37;;;;;;;64.00;9.40;;;;;;;20.40;40.01;92705.38;5030476;28;20212;-77
2022/04/01 09:11:05;;;;;;;42.85;8.48;;;;;;;20.39;40.08;92695.56;5011225;28;20251;-76
2022/04/01 09:13:34;;;;;;;58.60;9.40;;;;;;;20.40;40.18;92677.88;5011157;28;20208;-75
2022/04/01 09:16:03;;;;;;;52.88;9.43;;;;;;;20.58;39.58;92688.34;5011089;28;20212;-74
2022/04/01 09:18:37;;;;;;;64.63;9.32;;;;;;;20.53;39.62;92686.91;5010566;28;20783;-74
2022/04/01 09:21:07;;;;;;;59.60;9.10;;;;;;;20.76;38.94;92671.31;5010995;28;20748;-72
2022/04/01 09:23:34;;;;;;;55.25;8.80;;;;;;;20.63;39.56;92674.06;5015050;28;20235;-78
2022/04/01 09:26:01;;;;;;;61.25;9.52;;;;;;;20.82;39.34;92664.03;5030832;28;20295;-75
2022/04/01 09:28:30;;;;;;;61.83;9.23;;;;;;;20.92;39.21;92638.16;5030357;28;20207;-79
2022/04/01 09:30:59;;;;;;;62.83;9.90;;;;;;;20.96;40.06;92641.59;5020158;28;20534;-77
2022/04/01 09:33:33;;;;;;;70.65;11.02;;;;;;;20.74;41.37;92635.22;5010693;28;20386;-78
2022/04/01 09:36:04;;;;;;;42.95;8.90;;;;;;;20.45;42.04;92614.09;5010514;28;20196;-72
2022/04/01 09:38:34;;;;;;;58.00;9.13;;;;;;;20.75;40.80;92631.25;5030167;28;20670;-77
2022/04/01 09:41:03;;;;;;;58.28;11.07;;;;;;;21.01;40.39;92643.78;5030838;28;20204;-77
2022/04/01 09:43:32;;;;;;;60.53;9.43;;;;;;;21.30;38.91;92648.41;5030420;28;20256;-78
2022/04/01 09:46:05;;;;;;;59.03;9.88;;;;;;;21.37;38.53;92643.41;5030336;28;20212;-77
2022/04/01 09:48:41;;;;;;;52.97;9.98;;;;;;;21.40;38.41;92669.31;5030441;28;20227;-77
2022/04/01 09:51:11;;;;;;;59.10;10.77;;;;;;;21.37;38.65;92687.50;5030762;28;20290;-75
2022/04/01 09:53:40;;;;;;;66.60;9.93;;;;;;;21.55;38.31;92648.34;5030322;28;20598;-75
2022/04/01 09:56:09;;;;;;;50.97;9.90;;;;;;;21.49;37.99;92683.16;5030182;28;20664;-75
2022/04/01 09:58:36;;;;;;;54.30;8.90;;;;;;;21.35;37.71;92667.88;5034106;28;20263;-79
2022/04/01 10:01:04;;;;;;;55.60;9.07;;;;;;;21.45;37.81;92682.53;5034388;28;20208;-76
2022/04/01 10:03:31;;;;;;;63.20;10.05;;;;;;;21.83;36.93;92699.72;5022460;28;20232;-77
2022/04/01 10:05:59;;;;;;;59.08;9.52;;;;;;;21.69;36.65;92714.00;5014328;28;20216;-75
2022/04/01 10:08:27;;;;;;;60.95;9.77;;;;;;;21.97;36.22;92696.47;5014830;28;20561;-75
2022/04/01 10:10:55;;;;;;;54.45;8.95;;;;;;;21.96;36.07;92689.44;5027094;28;20660;-72
2022/04/01 10:13:27;;;;;;;46.70;7.35;;;;;;;21.85;36.16;92694.53;5014379;28;20208;-75
2022/04/01 10:15:55;;;;;;;48.15;9.60;;;;;;;21.95;36.47;92720.97;5020670;28;20227;-76
2022/04/01 10:18:22;;;;;;;48.97;8.98;;;;;;;21.89;36.34;92700.69;5033461;28;20228;-75
2022/04/01 10:20:50;;;;;;;56.65;8.43;;;;;;;21.93;36.58;92712.38;5033822;28;20600;-75
2022/04/01 10:23:17;;;;;;;54.90;8.65;;;;;;;21.69;36.59;92691.19;5031433;28;20240;-74
2022/04/01 10:25:48;;;;;;;55.60;9.60;;;;;;;21.78;35.91;92683.75;5013357;28;20205;-74
2022/04/01 10:28:18;;;;;;;52.58;8.68;;;;;;;22.23;35.74;92686.13;5013343;28;20295;-77
2022/04/01 10:30:52;;;;;;;46.63;8.52;;;;;;;22.51;35.12;92681.56;5013349;28;20664;-75
2022/04/01 10:33:24;;;;;;;46.20;7.57;;;;;;;22.38;34.88;92674.59;5014168;28;20569;-76
2022/04/01 10:35:51;;;;;;;48.03;8.93;;;;;;;22.29;35.06;92689.06;5013065;28;20718;-76
2022/04/01 10:38:20;;;;;;;48.95;9.07;;;;;;;22.33;36.30;92686.97;5013870;28;20205;-77
2022/04/01 10:40:51;;;;;;;44.65;9.82;;;;;;;22.38;35.85;92702.94;5012976;28;20300;-78
2022/04/01 10:43:21;;;;;;;45.33;8.20;;;;;;;22.36;35.88;92683.31;5013494;28;20221;-79
2022/04/01 10:46:00;;;;;;;49.00;8.43;;;;;;;22.07;35.77;92663.47;5013507;28;20208;-76
2022/04/01 10:53:59;;;;;;;56.60;8.73;;;;;;;22.23;35.31;92663.31;5033485;28;20591;-74
2022/04/01 10:56:34;;;;;;;56.47;8.68;;;;;;;21.98;35.36;92670.47;5013457;28;20627;-79
2022/04/01 10:59:06;;;;;;;53.10;7.82;;;;;;;21.92;35.30;92663.19;5013680;28;20217;-74
2022/04/01 11:01:36;;;;;;;46.03;7.30;;;;;;;22.17;35.21;92648.53;5022170;28;20189;-76
2022/04/01 11:04:03;;;;;;;46.03;7.22;;;;;;;22.55;34.42;92640.78;5033101;28;20247;-77
2022/04/01 11:06:30;;;;;;;45.63;7.57;;;;;;;22.60;33.43;92631.94;5023573;28;20552;-74
2022/04/01 11:08:57;;;;;;;37.83;6.57;;;;;;;22.63;33.26;92647.59;5014574;28;20205;-78
2022/04/01 11:11:24;;;;;;;35.55;5.70;;;;;;;22.51;34.03;92640.19;5023939;28;20291;-77
2022/04/01 11:14:07;;;;;;;35.05;6.38;;;;;;;22.78;33.40;92630.53;5013096;28;20204;-77
2022/04/01 11:16:46;;;;;;;40.42;7.13;;;;;;;22.99;33.66;92615.84;5013065;28;20316;-76
2022/04/01 11:19:18;;;;;;;45.17;7.28;;;;;;;23.15;33.75;92623.13;5013126;28;20236;-76
2022/04/01 11:21:46;;;;;;;41.92;7.10;;;;;;;23.02;33.34;92639.81;5012640;28;20205;-79
2022/04/01 11:24:33;;;;;;;42.20;7.18;;;;;;;22.56;33.32;92625.00;5022553;28;20228;-71
2022/04/01 11:27:07;;;;;;;44.05;7.05;;;;;;;21.67;34.29;92635.72;5015559;28;20644;-76
2022/04/01 11:29:36;;;;;;;43.65;7.15;;;;;;;21.59;35.79;92643.47;5013059;28;20287;-73
2022/04/01 11:32:07;;;;;;;33.30;5.80;;;;;;;21.07;35.32;92639.25;5031616;28;20207;-76
2022/04/01 11:34:55;;;;;;;32.75;6.82;;;;;;;20.91;36.05;92655.88;5032551;28;20617;-76
2022/04/01 11:37:22;;;;;;;37.95;6.57;;;;;;;20.53;37.03;92615.38;5032269;28;20200;-78
2022/04/01 11:39:49;;;;;;;48.13;7.35;;;;;;;20.60;37.29;92635.66;5032256;28;20201;-79
2022/04/01 11:42:16;;;;;;;50.53;7.40;;;;;;;20.86;37.62;92648.19;5032634;28;20291;-78
2022/04/01 11:44:58;;;;;;;41.22;6.93;;;;;;;20.70;36.83;92656.56;5031894;28;20238;-71